Главная страница
METAR-TAF:

METAR-TAF

Аэропорты :

Магнитогорск, Россия

широта: 53-23-36N, долгота: 058-45-24E, высота над уровнем моря: 436 м

Текущие метеонаблюдения

Эта сводка был подготовлена 22 минут назад, в 11:30 UTC
Ветер 12 Узел от юго-западный
Температура 2°C
Влажность 69%
Давление 1020 hPa
Видимость 10 км и более
Отдельные облака на высоте 3000 фута

METAR: USCM 161130Z 22006MPS 9999 SCT030 02/M03 Q1020 R18/090060 NOSIG RMK QFE727

Время: 16:52 (11:52 UTC)

Прогноз

Эта сводка был подготовлена 52 минут назад, в 11:00 UTC
Прогноз действительный с 16-го 12 UTC до 16-го 21 UTC
Ветер 6 Узел от юго-западный с порывами до 16 Узел
Видимость: 4000 м
Сплошная облачность на высоте 1100 фута
небольшой снег, дождь, дымка
временами
С 16-го 12 UTC до 16-го 21 UTC
Ветер 16 Узел от юго-западный
Видимость: 2100 м
на высоте 500 фута
небольшой снег, дождь

TAF: USCM 161100Z 1612/1621 22003G08MPS 4000 -SNRA BR OVC011 TEMPO 1612/1621 22008MPS 2100 -SNRA VV005

Метеонаблюдения и прогнозы для более 4000 аэропортов (сводки METAR и TAF).

Имеющиеся станции представлены на карте желтыми и красными точками.

Чтобы увидеть название станции, наведите на нее мышь.

Затем щелкните, чтобы увидеть метеонаблюдения и метеопрогнозы.

Управление картой: чтобы увеличить масштаб, щелкните зеленые кнопки с черным крестиком; чтобы уменьшить масштаб, щелкните зеленую кнопку с тире; для просмотра соседних карт щелкайте зеленые стрелки.


METAR-TAF: